createdAt,value
2022-12-13T00:01:23.616Z,92951.41
2022-12-13T00:03:56.449Z,92955.47
2022-12-13T00:06:22.899Z,92903.59
2022-12-13T00:08:49.630Z,92945.41
2022-12-13T00:11:16.656Z,92940.63
2022-12-13T00:13:43.795Z,92909.50
2022-12-13T00:16:12.726Z,92938.88
2022-12-13T00:18:39.795Z,92867.34
2022-12-13T00:21:08.394Z,92899.47
2022-12-13T00:23:35.506Z,92899.91
2022-12-13T00:26:15.287Z,92882.78
2022-12-13T00:28:42.191Z,92896.38
2022-12-13T00:31:51.596Z,92912.59
2022-12-13T00:33:56.023Z,92859.56
2022-12-13T00:36:22.495Z,92895.94
2022-12-13T00:39:00.230Z,92908.75
2022-12-13T00:41:30.170Z,92875.72
2022-12-13T00:43:57.113Z,92852.38
2022-12-13T00:46:23.936Z,92903.84
2022-12-13T00:48:52.578Z,92900.47
2022-12-13T00:51:20.063Z,92889.13
2022-12-13T00:53:47.008Z,92827.31
2022-12-13T00:56:16.827Z,92869.78
2022-12-13T00:58:48.648Z,92890.06
2022-12-13T01:01:21.090Z,92861.84
2022-12-13T01:03:47.743Z,92869.50
2022-12-13T01:06:16.750Z,92888.56
2022-12-13T01:08:44.418Z,92898.72
2022-12-13T01:11:10.917Z,92836.75
2022-12-13T01:13:38.174Z,92838.88
2022-12-13T01:16:06.735Z,92841.59
2022-12-13T01:18:33.577Z,92883.19
2022-12-13T01:21:34.234Z,92889.34
2022-12-13T01:24:05.394Z,92884.78
2022-12-13T01:26:32.571Z,92843.06
2022-12-13T01:28:59.355Z,92857.66
2022-12-13T01:31:26.474Z,92848.41
2022-12-13T01:33:52.915Z,92830.44
2022-12-13T01:36:27.128Z,92864.31
2022-12-13T01:38:58.288Z,92811.16
2022-12-13T01:41:27.335Z,92841.75
2022-12-13T01:44:05.456Z,92852.72
2022-12-13T01:46:34.359Z,92861.00
2022-12-13T01:49:20.387Z,92848.03
2022-12-13T01:51:59.744Z,92823.88
2022-12-13T01:54:33.749Z,92821.59
2022-12-13T01:57:06.378Z,92843.22
2022-12-13T01:59:36.799Z,92815.91
2022-12-13T02:02:04.891Z,92839.50
2022-12-13T02:04:44.097Z,92836.22
2022-12-13T02:07:14.165Z,92837.59
2022-12-13T02:09:56.366Z,92822.53
2022-12-13T02:12:29.349Z,92810.72
2022-12-13T02:15:00.547Z,92843.47
2022-12-13T02:17:55.213Z,92853.59
2022-12-13T02:20:30.976Z,92853.19
2022-12-13T02:23:18.775Z,92835.22
2022-12-13T02:26:02.692Z,92800.47
2022-12-13T02:28:44.206Z,92830.84
2022-12-13T02:31:15.613Z,92819.19
2022-12-13T02:34:12.526Z,92818.88
2022-12-13T02:36:57.263Z,92812.41
2022-12-13T02:39:31.137Z,92817.09
2022-12-13T02:42:02.818Z,92813.69
2022-12-13T02:44:32.392Z,92779.53
2022-12-13T02:47:05.432Z,92791.66
2022-12-13T02:49:46.898Z,92815.47
2022-12-13T02:52:22.507Z,92825.38
2022-12-13T02:54:49.267Z,92815.63
2022-12-13T02:57:29.986Z,92808.19
2022-12-13T02:59:59.196Z,92804.63
2022-12-13T03:02:42.351Z,92794.72
2022-12-13T03:05:45.905Z,92790.84
2022-12-13T03:08:15.052Z,92805.75
2022-12-13T03:10:49.815Z,92726.38
2022-12-13T03:13:37.853Z,92770.41
2022-12-13T03:16:25.477Z,92803.72
2022-12-13T03:18:55.086Z,92793.41
2022-12-13T03:21:22.029Z,92769.44
2022-12-13T03:23:48.589Z,92765.94
2022-12-13T03:26:20.303Z,92793.38
2022-12-13T03:28:57.094Z,92783.94
2022-12-13T03:31:23.559Z,92756.38
2022-12-13T03:33:50.059Z,92756.38
2022-12-13T03:36:18.865Z,92733.91
2022-12-13T03:38:47.802Z,92776.28
2022-12-13T03:41:17.582Z,92774.06
2022-12-13T03:43:44.520Z,92789.38
2022-12-13T03:46:11.211Z,92686.16
2022-12-13T03:48:38.216Z,92761.94
2022-12-13T03:51:05.250Z,92783.59
2022-12-13T03:53:34.174Z,92742.53
2022-12-13T03:56:03.559Z,92775.16
2022-12-13T03:58:35.953Z,92780.03
2022-12-13T04:01:09.191Z,92768.47
2022-12-13T04:03:37.171Z,92741.72
2022-12-13T04:06:04.205Z,92703.81
2022-12-13T04:08:30.673Z,92690.63
2022-12-13T04:10:57.135Z,92732.00
2022-12-13T04:13:32.493Z,92732.19
2022-12-13T04:15:58.892Z,92753.25
2022-12-13T04:18:25.324Z,92758.25
2022-12-13T04:20:51.752Z,92714.88
2022-12-13T04:23:34.561Z,92727.16
2022-12-13T04:26:01.840Z,92712.59
2022-12-13T04:28:28.279Z,92717.09
2022-12-13T04:30:54.694Z,92714.53
2022-12-13T04:33:22.492Z,92728.22
2022-12-13T04:35:49.715Z,92747.69
2022-12-13T04:38:16.671Z,92747.84
2022-12-13T04:40:43.087Z,92696.69
2022-12-13T04:43:09.678Z,92713.69
2022-12-13T04:45:36.157Z,92725.03
2022-12-13T04:48:02.684Z,92746.59
2022-12-13T04:50:29.120Z,92673.41
2022-12-13T04:52:55.630Z,92713.56
2022-12-13T04:55:22.106Z,92738.69
2022-12-13T04:57:48.538Z,92715.78
2022-12-13T05:00:15.450Z,92739.50
2022-12-13T05:02:42.335Z,92678.16
2022-12-13T05:05:12.326Z,92708.75
2022-12-13T05:07:41.903Z,92708.50
2022-12-13T05:10:11.869Z,92736.94
2022-12-13T05:12:49.395Z,92716.34
2022-12-13T05:15:37.701Z,92735.94
2022-12-13T05:18:09.746Z,92674.91
2022-12-13T05:20:38.921Z,92679.13
2022-12-13T05:23:05.426Z,92661.31
2022-12-13T05:25:33.271Z,92708.06
2022-12-13T05:28:08.839Z,92687.97
2022-12-13T05:30:38.671Z,92666.84
2022-12-13T05:33:10.840Z,92719.16
2022-12-13T05:35:37.437Z,92725.44
2022-12-13T05:38:20.222Z,92725.59
2022-12-13T05:41:15.048Z,92732.47
2022-12-13T05:43:43.263Z,92726.72
2022-12-13T05:46:42.159Z,92738.22
2022-12-13T05:49:08.566Z,92688.41
2022-12-13T05:51:47.329Z,92678.50
2022-12-13T05:54:14.931Z,92681.00
2022-12-13T05:56:41.360Z,92717.47
2022-12-13T05:59:07.792Z,92641.88
2022-12-13T06:01:35.393Z,92655.06
2022-12-13T06:04:01.849Z,92689.31
2022-12-13T06:06:28.409Z,92695.13
2022-12-13T06:08:55.006Z,92666.00
2022-12-13T06:11:32.356Z,92652.88
2022-12-13T06:14:00.669Z,92684.78
2022-12-13T06:16:27.811Z,92654.34
2022-12-13T06:19:03.849Z,92679.59
2022-12-13T06:21:41.496Z,92666.47
2022-12-13T06:24:10.257Z,92661.63
2022-12-13T06:26:36.666Z,92678.06
2022-12-13T06:29:03.264Z,92670.53
2022-12-13T06:31:29.732Z,92679.44
2022-12-13T06:33:56.139Z,92657.41
2022-12-13T06:36:22.531Z,92639.28
2022-12-13T06:38:48.941Z,92665.69
2022-12-13T06:41:17.099Z,92722.97
2022-12-13T06:43:45.272Z,92684.22
2022-12-13T06:46:12.794Z,92685.44
2022-12-13T06:48:40.638Z,92676.13
2022-12-13T06:51:08.477Z,92682.19
2022-12-13T06:53:37.421Z,92712.31
2022-12-13T06:56:06.847Z,92717.31
2022-12-13T06:58:34.774Z,92719.59
2022-12-13T07:01:03.925Z,92699.59
2022-12-13T07:03:31.914Z,92700.50
2022-12-13T07:06:06.408Z,92680.59
2022-12-13T07:08:32.891Z,92689.94
2022-12-13T07:11:02.798Z,92669.88
2022-12-13T07:13:31.033Z,92645.28
2022-12-13T07:16:00.823Z,92654.66
2022-12-13T07:18:27.851Z,92682.97
2022-12-13T07:20:54.317Z,92669.16
2022-12-13T07:23:24.677Z,92654.81
2022-12-13T07:25:53.328Z,92711.09
2022-12-13T07:28:20.575Z,92725.59
2022-12-13T07:30:47.893Z,92736.81
2022-12-13T07:33:22.068Z,92695.66
2022-12-13T07:35:49.033Z,92718.00
2022-12-13T07:38:22.056Z,92734.72
2022-12-13T07:40:48.510Z,92697.34
2022-12-13T07:43:17.265Z,92730.78
2022-12-13T07:45:44.041Z,92744.06
2022-12-13T07:48:10.449Z,92739.19
2022-12-13T07:50:37.877Z,92696.16
2022-12-13T07:53:07.316Z,92741.75
2022-12-13T07:55:34.404Z,92705.59
2022-12-13T07:58:12.629Z,92748.88
2022-12-13T08:00:45.889Z,92700.00
2022-12-13T08:03:24.368Z,92736.78
2022-12-13T08:06:10.533Z,92736.22
2022-12-13T08:08:37.795Z,92713.19
2022-12-13T08:11:09.977Z,92745.78
2022-12-13T08:13:36.972Z,92748.13
2022-12-13T08:16:25.947Z,92748.75
2022-12-13T08:18:53.796Z,92694.63
2022-12-13T08:24:20.074Z,92722.53
2022-12-13T08:26:46.479Z,92724.75
2022-12-13T08:29:13.292Z,92756.63
2022-12-13T08:31:50.202Z,92728.34
2022-12-13T08:34:16.688Z,92741.25
2022-12-13T08:36:43.155Z,92749.13
2022-12-13T08:39:09.579Z,92739.13
2022-12-13T08:41:39.336Z,92740.75
2022-12-13T08:44:06.324Z,92759.56
2022-12-13T08:46:32.891Z,92734.22
2022-12-13T08:49:00.546Z,92731.69
2022-12-13T08:51:30.843Z,92719.75
2022-12-13T08:54:10.783Z,92740.00
2022-12-13T08:56:38.344Z,92730.69
2022-12-13T08:59:05.001Z,92763.31
2022-12-13T09:01:31.510Z,92735.00
2022-12-13T09:03:58.036Z,92716.28
2022-12-13T09:06:24.599Z,92747.28
2022-12-13T09:08:53.130Z,92744.28
2022-12-13T09:11:20.804Z,92745.28
2022-12-13T09:13:51.795Z,92764.09
2022-12-13T09:16:24.229Z,92769.50
2022-12-13T09:18:55.102Z,92757.50
2022-12-13T09:21:31.359Z,92727.78
2022-12-13T09:24:01.876Z,92779.41
2022-12-13T09:26:29.145Z,92762.78
2022-12-13T09:29:11.037Z,92757.50
2022-12-13T09:31:40.339Z,92772.03
2022-12-13T09:34:07.217Z,92737.41
2022-12-13T09:36:33.779Z,92752.75
2022-12-13T09:39:00.191Z,92696.63
2022-12-13T09:41:40.955Z,92768.41
2022-12-13T09:44:32.275Z,92727.28
2022-12-13T09:47:00.844Z,92716.72
2022-12-13T09:49:35.889Z,92745.97
2022-12-13T09:52:11.041Z,92701.50
2022-12-13T09:54:47.674Z,92752.31
2022-12-13T09:57:32.021Z,92731.06
2022-12-13T10:00:02.469Z,92729.97
2022-12-13T10:02:32.001Z,92748.97
2022-12-13T10:05:25.390Z,92754.66
2022-12-13T10:08:17.648Z,92714.50
2022-12-13T10:10:44.346Z,92731.41
2022-12-13T10:13:16.531Z,92743.00
2022-12-13T10:15:47.638Z,92722.19
2022-12-13T10:18:24.787Z,92721.28
2022-12-13T10:20:53.027Z,92739.03
2022-12-13T10:23:59.284Z,92704.72
2022-12-13T10:26:23.951Z,92743.19
2022-12-13T10:28:52.835Z,92731.97
2022-12-13T10:31:20.731Z,92716.34
2022-12-13T10:33:56.902Z,92730.31
2022-12-13T10:36:38.374Z,92734.63
2022-12-13T10:39:04.894Z,92680.13
2022-12-13T10:41:38.414Z,92727.44
2022-12-13T10:44:25.307Z,92704.00
2022-12-13T10:47:10.100Z,92724.09
2022-12-13T10:49:47.721Z,92729.78
2022-12-13T10:52:33.667Z,92690.81
2022-12-13T10:55:22.796Z,92723.03
2022-12-13T10:57:56.764Z,92717.25
2022-12-13T11:00:37.086Z,92694.84
2022-12-13T11:03:04.225Z,92706.22
2022-12-13T11:05:33.955Z,92707.03
2022-12-13T11:08:14.324Z,92688.56
2022-12-13T11:10:41.079Z,92660.16
2022-12-13T11:13:08.170Z,92715.09
2022-12-13T11:15:37.809Z,92681.56
2022-12-13T11:18:23.172Z,92709.22
2022-12-13T11:21:04.230Z,92703.59
2022-12-13T11:23:38.101Z,92703.84
2022-12-13T11:26:16.766Z,92671.13
2022-12-13T11:29:18.885Z,92696.75
2022-12-13T11:32:00.856Z,92669.50
2022-12-13T11:34:51.526Z,92693.41
2022-12-13T11:37:33.340Z,92693.41
2022-12-13T11:40:31.895Z,92697.63
2022-12-13T11:43:21.098Z,92694.81
2022-12-13T11:45:55.869Z,92680.47
2022-12-13T11:48:39.307Z,92665.44
2022-12-13T11:51:07.878Z,92658.03
2022-12-13T11:53:49.659Z,92693.22
2022-12-13T11:56:23.883Z,92659.47
2022-12-13T11:59:11.988Z,92681.25
2022-12-13T12:01:53.245Z,92675.91
2022-12-13T12:04:44.221Z,92675.63
2022-12-13T12:07:31.985Z,92669.41
2022-12-13T12:10:21.108Z,92670.75
2022-12-13T12:12:55.552Z,92664.59
2022-12-13T12:15:27.047Z,92677.13
2022-12-13T12:17:55.539Z,92653.78
2022-12-13T12:20:41.957Z,92679.50
2022-12-13T12:23:23.159Z,92676.53
2022-12-13T12:25:57.689Z,92681.16
2022-12-13T12:28:34.406Z,92621.13
2022-12-13T12:31:23.828Z,92672.88
2022-12-13T12:34:13.245Z,92677.63
2022-12-13T12:36:51.186Z,92678.19
2022-12-13T12:39:59.460Z,92688.50
2022-12-13T12:43:14.271Z,92692.38
2022-12-13T12:45:56.413Z,92690.81
2022-12-13T12:51:39.605Z,92680.91
2022-12-13T12:54:35.443Z,92691.91
2022-12-13T12:57:29.092Z,92681.03
2022-12-13T13:00:17.660Z,92668.09
2022-12-13T13:03:05.263Z,92674.22
2022-12-13T13:05:48.095Z,92676.38
2022-12-13T13:08:28.860Z,92633.03
2022-12-13T13:11:01.816Z,92647.97
2022-12-13T13:14:01.739Z,92671.91
2022-12-13T13:16:33.350Z,92676.34
2022-12-13T13:19:34.748Z,92689.78
2022-12-13T13:22:53.752Z,92693.56
2022-12-13T13:25:35.189Z,92688.56
2022-12-13T13:28:17.876Z,92699.16
2022-12-13T13:31:10.390Z,92700.66
2022-12-13T13:33:47.344Z,92666.06
2022-12-13T13:36:38.785Z,92694.75
2022-12-13T13:39:19.249Z,92677.63
2022-12-13T13:41:56.862Z,92698.88
2022-12-13T13:45:01.935Z,92699.81
2022-12-13T13:47:33.979Z,92703.72
2022-12-13T13:50:12.411Z,92700.88
2022-12-13T13:53:21.458Z,92700.50
2022-12-13T13:56:19.614Z,92705.59
2022-12-13T14:02:58.423Z,92651.03
2022-12-13T14:06:14.880Z,92697.75
2022-12-13T14:09:20.556Z,92707.69
2022-12-13T14:12:02.572Z,92697.63
2022-12-13T14:15:01.464Z,92699.63
2022-12-13T14:17:49.952Z,92696.19
2022-12-13T14:20:42.585Z,92696.97
2022-12-13T14:24:07.366Z,92707.31
2022-12-13T14:27:31.556Z,92702.28
2022-12-13T14:29:59.084Z,92682.06
2022-12-13T14:32:32.748Z,92688.38
2022-12-13T14:35:25.827Z,92681.88
2022-12-13T14:37:56.849Z,92704.47
2022-12-13T14:40:56.393Z,92696.16
2022-12-13T14:43:26.874Z,92706.63
2022-12-13T14:46:19.155Z,92708.53
2022-12-13T14:48:49.444Z,92697.84
2022-12-13T14:51:30.434Z,92662.47
2022-12-13T14:53:56.966Z,92665.66
2022-12-13T14:56:54.828Z,92671.81
2022-12-13T14:59:25.775Z,92662.72
2022-12-13T15:02:00.326Z,92678.31
2022-12-13T15:04:29.332Z,92698.16
2022-12-13T15:07:01.691Z,92702.13
2022-12-13T15:09:42.318Z,92705.91
2022-12-13T15:12:24.430Z,92705.91
2022-12-13T15:15:14.499Z,92680.16
2022-12-13T15:17:45.035Z,92693.31
2022-12-13T15:20:23.983Z,92703.94
2022-12-13T15:23:10.775Z,92680.47
2022-12-13T15:25:38.005Z,92699.47
2022-12-13T15:28:18.253Z,92705.38
2022-12-13T15:31:06.285Z,92702.44
2022-12-13T15:34:28.337Z,92703.28
2022-12-13T15:37:28.323Z,92687.19
2022-12-13T15:39:59.851Z,92702.34
2022-12-13T15:42:47.017Z,92700.47
2022-12-13T15:45:31.770Z,92677.00
2022-12-13T15:48:06.178Z,92673.53
2022-12-13T15:50:41.005Z,92664.53
2022-12-13T15:53:28.941Z,92663.34
2022-12-13T15:55:55.886Z,92666.41
2022-12-13T15:58:40.377Z,92636.81
2022-12-13T16:01:30.576Z,92677.00
2022-12-13T16:03:57.546Z,92641.88
2022-12-13T16:06:26.408Z,92671.38
2022-12-13T16:08:59.866Z,92634.09
2022-12-13T16:11:34.195Z,92661.72
2022-12-13T16:14:49.477Z,92673.66
2022-12-13T16:17:24.969Z,92675.94
2022-12-13T16:19:55.920Z,92675.94
2022-12-13T16:22:24.028Z,92630.09
2022-12-13T16:24:52.876Z,92649.38
2022-12-13T16:27:19.689Z,92659.97
2022-12-13T16:30:15.939Z,92656.84
2022-12-13T16:33:10.806Z,92617.47
2022-12-13T16:35:45.206Z,92659.84
2022-12-13T16:38:17.801Z,92606.78
2022-12-13T16:41:09.282Z,92636.22
2022-12-13T16:44:10.626Z,92656.06
2022-12-13T16:47:18.702Z,92641.56
2022-12-13T16:49:34.707Z,92636.22
2022-12-13T16:52:05.007Z,92637.56
2022-12-13T16:54:39.735Z,92623.31
2022-12-13T16:57:21.306Z,92616.63
2022-12-13T16:59:55.013Z,92566.25
2022-12-13T17:02:25.645Z,92624.16
2022-12-13T17:04:54.132Z,92635.41
2022-12-13T17:07:20.555Z,92605.91
2022-12-13T17:10:04.896Z,92654.13
2022-12-13T17:12:50.610Z,92646.09
2022-12-13T17:15:17.186Z,92621.16
2022-12-13T17:17:45.178Z,92626.25
2022-12-13T17:20:47.036Z,92634.00
2022-12-13T17:23:36.014Z,92599.97
2022-12-13T17:26:06.914Z,92576.66
2022-12-13T17:28:34.262Z,92609.09
2022-12-13T17:31:09.744Z,92619.50
2022-12-13T17:33:50.518Z,92595.00
2022-12-13T17:36:38.748Z,92626.19
2022-12-13T17:39:12.059Z,92564.31
2022-12-13T17:41:54.787Z,92599.94
2022-12-13T17:44:23.376Z,92601.06
2022-12-13T17:46:55.092Z,92577.69
2022-12-13T17:49:22.261Z,92556.28
2022-12-13T17:51:51.411Z,92606.38
2022-12-13T17:54:18.664Z,92599.66
2022-12-13T17:56:45.117Z,92559.22
2022-12-13T17:59:13.301Z,92583.28
2022-12-13T18:01:39.776Z,92568.94
2022-12-13T18:04:06.245Z,92458.44
2022-12-13T18:06:39.519Z,92602.81
2022-12-13T18:09:08.131Z,92594.66
2022-12-13T18:11:43.135Z,92569.38
2022-12-13T18:14:41.743Z,92601.00
2022-12-13T18:17:08.203Z,92559.47
2022-12-13T18:19:34.642Z,92570.75
2022-12-13T18:22:10.403Z,92555.81
2022-12-13T18:24:36.992Z,92574.75
2022-12-13T18:27:03.648Z,92569.78
2022-12-13T18:29:36.405Z,92576.88
2022-12-13T18:32:03.643Z,92559.47
2022-12-13T18:35:04.468Z,92602.25
2022-12-13T18:37:30.875Z,92597.47
2022-12-13T18:39:57.270Z,92586.25
2022-12-13T18:42:23.678Z,92595.31
2022-12-13T18:44:54.189Z,92544.22
2022-12-13T18:47:21.363Z,92589.03
2022-12-13T18:49:55.096Z,92571.88
2022-12-13T18:52:37.300Z,92546.00
2022-12-13T18:55:04.073Z,92606.56
2022-12-13T18:57:37.479Z,92578.22
2022-12-13T19:00:05.174Z,92549.00
2022-12-13T19:02:45.099Z,92587.56
2022-12-13T19:05:14.904Z,92558.28
2022-12-13T19:07:48.468Z,92577.63
2022-12-13T19:10:16.089Z,92565.06
2022-12-13T19:13:14.641Z,92602.22
2022-12-13T19:15:44.927Z,92597.97
2022-12-13T19:18:14.930Z,92573.69
2022-12-13T19:20:46.842Z,92599.28
2022-12-13T19:23:13.311Z,92561.78
2022-12-13T19:25:52.809Z,92579.72
2022-12-13T19:28:44.497Z,92597.69
2022-12-13T19:31:15.611Z,92595.94
2022-12-13T19:33:42.740Z,92576.72
2022-12-13T19:36:11.341Z,92583.72
2022-12-13T19:38:38.518Z,92549.72
2022-12-13T19:41:17.212Z,92579.44
2022-12-13T19:43:50.621Z,92567.34
2022-12-13T19:46:18.921Z,92564.25
2022-12-13T19:49:01.558Z,92497.94
2022-12-13T19:51:39.803Z,92529.69
2022-12-13T19:54:13.799Z,92525.88
2022-12-13T19:56:47.442Z,92538.72
2022-12-13T19:59:20.117Z,92548.66
2022-12-13T20:01:57.218Z,92519.44
2022-12-13T20:04:25.934Z,92511.25
2022-12-13T20:07:18.415Z,92551.94
2022-12-13T20:09:44.825Z,92539.09
2022-12-13T20:12:11.284Z,92501.13
2022-12-13T20:14:37.885Z,92523.56
2022-12-13T20:17:16.733Z,92525.19
2022-12-13T20:19:43.270Z,92534.09
2022-12-13T20:22:26.682Z,92542.06
2022-12-13T20:24:54.400Z,92514.19
2022-12-13T20:27:26.069Z,92528.63
2022-12-13T20:29:53.465Z,92525.13
2022-12-13T20:32:21.002Z,92502.00
2022-12-13T20:34:54.531Z,92482.53
2022-12-13T20:37:21.789Z,92489.91
2022-12-13T20:39:48.295Z,92474.31
2022-12-13T20:42:20.862Z,92465.34
2022-12-13T20:45:04.008Z,92474.09
2022-12-13T20:47:33.907Z,92447.47
2022-12-13T20:50:07.792Z,92454.06
2022-12-13T20:52:34.189Z,92464.69
2022-12-13T20:55:00.731Z,92452.06
2022-12-13T20:57:34.205Z,92470.06
2022-12-13T21:00:00.759Z,92478.28
2022-12-13T21:02:37.768Z,92480.94
2022-12-13T21:05:05.611Z,92424.22
2022-12-13T21:08:06.850Z,92434.84
2022-12-13T21:10:33.252Z,92436.09
2022-12-13T21:12:59.659Z,92442.91
2022-12-13T21:15:26.063Z,92436.75
2022-12-13T21:17:52.458Z,92434.28
2022-12-13T21:20:23.147Z,92448.31
2022-12-13T21:22:49.575Z,92446.25
2022-12-13T21:25:16.013Z,92429.13
2022-12-13T21:27:51.570Z,92388.69
2022-12-13T21:31:11.648Z,92460.19
2022-12-13T21:33:39.385Z,92403.63
2022-12-13T21:36:16.419Z,92438.25
2022-12-13T21:38:44.028Z,92423.31
2022-12-13T21:41:11.395Z,92393.78
2022-12-13T21:43:58.707Z,92444.13
2022-12-13T21:46:47.847Z,92438.72
2022-12-13T21:49:16.165Z,92435.97
2022-12-13T21:51:47.572Z,92440.69
2022-12-13T21:54:14.816Z,92428.88
2022-12-13T21:56:59.659Z,92431.13
2022-12-13T21:59:28.605Z,92442.00
2022-12-13T22:02:11.739Z,92401.75
2022-12-13T22:04:53.103Z,92439.91
2022-12-13T22:07:22.529Z,92437.66
2022-12-13T22:09:52.458Z,92432.19
2022-12-13T22:12:26.365Z,92410.16
2022-12-13T22:14:53.602Z,92431.28
2022-12-13T22:17:24.939Z,92440.50
2022-12-13T22:20:02.082Z,92394.94
2022-12-13T22:22:28.725Z,92399.25
2022-12-13T22:24:55.233Z,92429.50
2022-12-13T22:27:25.568Z,92430.28
2022-12-13T22:29:59.686Z,92417.56
2022-12-13T22:32:28.612Z,92408.66
2022-12-13T22:34:55.166Z,92404.75
2022-12-13T22:37:22.164Z,92392.47
2022-12-13T22:39:48.567Z,92389.22
2022-12-13T22:42:20.329Z,92390.56
2022-12-13T22:44:46.883Z,92379.38
2022-12-13T22:47:13.309Z,92413.16
2022-12-13T22:49:40.161Z,92371.13
2022-12-13T22:52:06.935Z,92383.22
2022-12-13T22:54:33.332Z,92370.53
2022-12-13T22:56:59.731Z,92343.88
2022-12-13T22:59:26.153Z,92372.69
2022-12-13T23:02:05.054Z,92372.91
2022-12-13T23:04:31.988Z,92376.13
2022-12-13T23:06:58.744Z,92387.13
2022-12-13T23:09:25.137Z,92368.91
2022-12-13T23:12:10.159Z,92347.22
2022-12-13T23:14:36.592Z,92363.81
2022-12-13T23:17:04.374Z,92379.81
2022-12-13T23:19:49.803Z,92347.47
2022-12-13T23:22:21.166Z,92358.09
2022-12-13T23:24:47.652Z,92352.81
2022-12-13T23:27:14.256Z,92387.94
2022-12-13T23:29:40.751Z,92368.09
2022-12-13T23:32:07.212Z,92347.59
2022-12-13T23:34:33.733Z,92358.78
2022-12-13T23:37:00.154Z,92361.03
2022-12-13T23:39:26.710Z,92352.81
2022-12-13T23:41:53.133Z,92341.16
2022-12-13T23:44:27.810Z,92353.38
2022-12-13T23:46:55.268Z,92367.44
2022-12-13T23:49:21.704Z,92382.50
2022-12-13T23:51:48.142Z,92366.44
2022-12-13T23:54:17.645Z,92351.44
2022-12-13T23:56:44.086Z,92352.69
2022-12-13T23:59:11.044Z,92352.06
